Time;durP1;ratioP1;P1;durP2;ratioP2;P2;SDS_P1;SDS_P2;PMS_P1;PMS_P2;Temp;Humidity;BMP_temperature;BMP_pressure;BME280_temperature;BME280_humidity;BME280_pressure;Samples;Min_cycle;Max_cycle;Signal;HPM_P1;HPM_P2
2022/05/02 00:02:08;;;;;;;6.75;3.17;;;;;;;15.20;53.39;99954.50;4348921;32;34377;-82
2022/05/02 00:04:37;;;;;;;3.42;2.85;;;;;;;15.22;53.22;99947.25;4344896;32;33835;-81
2022/05/02 00:07:04;;;;;;;4.35;3.12;;;;;;;15.15;53.32;99960.09;4360715;32;33328;-81
2022/05/02 00:09:32;;;;;;;4.05;2.83;;;;;;;15.03;53.47;99961.66;4336232;32;32889;-81
2022/05/02 00:12:00;;;;;;;4.00;2.95;;;;;;;14.79;53.75;99952.47;4343094;32;33238;-82
2022/05/02 00:14:29;;;;;;;6.35;3.10;;;;;;;14.97;52.83;99948.75;4348113;32;33914;-82
2022/05/02 00:16:58;;;;;;;3.37;2.62;;;;;;;14.98;53.01;99950.44;4357465;32;34284;-82
2022/05/02 00:19:25;;;;;;;5.93;2.92;;;;;;;14.82;53.50;99949.66;4345238;32;32442;-83
2022/05/02 00:21:53;;;;;;;4.40;3.03;;;;;;;14.82;53.62;99947.00;4345677;32;32294;-82
2022/05/02 00:24:21;;;;;;;3.50;3.10;;;;;;;14.78;53.97;99948.13;4339951;33;33612;-82
2022/05/02 00:26:49;;;;;;;4.00;2.75;;;;;;;14.98;53.03;99949.59;4360599;32;33011;-82
2022/05/02 00:29:16;;;;;;;5.20;3.05;;;;;;;14.71;54.21;99952.06;4355021;32;33812;-82
2022/05/02 00:31:45;;;;;;;3.80;2.62;;;;;;;14.70;54.46;99945.03;4348606;32;32690;-82
2022/05/02 00:34:14;;;;;;;6.60;3.05;;;;;;;14.81;53.62;99943.47;4348700;32;32256;-84
2022/05/02 00:36:45;;;;;;;4.55;3.05;;;;;;;14.83;53.90;99946.88;4353829;32;33015;-82
2022/05/02 00:39:14;;;;;;;3.58;2.60;;;;;;;14.89;53.83;99950.97;4347649;32;33897;-81
2022/05/02 00:41:42;;;;;;;4.62;2.97;;;;;;;15.22;52.85;99947.25;4348825;32;32755;-81
2022/05/02 00:44:11;;;;;;;4.53;2.90;;;;;;;14.95;53.68;99947.94;4333182;32;34273;-81
2022/05/02 00:46:43;;;;;;;3.95;3.25;;;;;;;14.87;54.36;99946.72;4352785;32;33442;-81
2022/05/02 00:49:14;;;;;;;5.23;3.87;;;;;;;14.87;54.60;99947.56;4338656;32;31064;-81
2022/05/02 00:51:42;;;;;;;3.65;3.17;;;;;;;14.86;54.66;99945.88;4345236;32;33014;-81
2022/05/02 00:54:10;;;;;;;4.10;3.10;;;;;;;14.79;54.86;99950.66;4349073;32;33728;-80
2022/05/02 00:56:38;;;;;;;3.87;2.92;;;;;;;14.87;54.75;99962.69;4348598;32;33212;-81
2022/05/02 00:59:06;;;;;;;3.80;3.25;;;;;;;14.94;54.50;99954.22;4344529;32;33466;-80
2022/05/02 01:01:33;;;;;;;5.37;3.08;;;;;;;14.83;55.16;99951.34;4341883;32;35161;-80
2022/05/02 01:04:02;;;;;;;3.55;3.22;;;;;;;14.70;55.46;99953.00;4348377;32;33130;-80
2022/05/02 01:09:16;;;;;;;4.35;2.80;;;;;;;14.79;55.29;99949.81;4359604;32;33073;-80
2022/05/02 01:11:45;;;;;;;3.60;3.10;;;;;;;14.70;55.85;99958.31;4360229;32;32785;-81
2022/05/02 01:14:13;;;;;;;6.75;3.33;;;;;;;14.65;55.86;99949.78;4347123;32;35086;-81
2022/05/02 01:16:41;;;;;;;4.00;2.92;;;;;;;14.52;56.22;99955.78;4348157;32;33065;-81
2022/05/02 01:19:09;;;;;;;7.62;3.08;;;;;;;14.56;56.05;99956.47;4355218;32;34123;-81
2022/05/02 01:21:38;;;;;;;3.58;3.28;;;;;;;14.62;56.15;99956.09;4341594;32;34167;-81
2022/05/02 01:24:06;;;;;;;5.10;3.00;;;;;;;15.05;55.10;99953.63;4361557;32;33497;-81
2022/05/02 01:26:34;;;;;;;5.20;3.22;;;;;;;14.60;56.38;99956.19;4360280;32;33024;-81
2022/05/02 01:29:02;;;;;;;4.43;3.45;;;;;;;14.44;56.72;99959.81;4344827;32;32961;-81
2022/05/02 01:31:30;;;;;;;6.10;4.25;;;;;;;14.48;56.97;99956.03;4371139;32;33382;-80
2022/05/02 01:33:59;;;;;;;5.62;3.17;;;;;;;14.45;56.86;99951.75;4348046;32;32901;-80
2022/05/02 01:36:28;;;;;;;4.65;3.10;;;;;;;14.48;56.70;99962.25;4353290;32;32403;-80
2022/05/02 01:38:56;;;;;;;5.75;2.90;;;;;;;14.40;57.08;99952.97;4361601;32;33474;-81
2022/05/02 01:41:24;;;;;;;5.90;3.25;;;;;;;14.45;56.85;99957.06;4372585;32;32566;-80
2022/05/02 01:43:52;;;;;;;6.65;3.20;;;;;;;14.38;57.09;99963.66;4353631;32;33906;-81
2022/05/02 01:46:20;;;;;;;5.30;3.85;;;;;;;14.50;56.74;99963.00;4370217;32;33115;-81
2022/05/02 01:48:49;;;;;;;5.82;3.40;;;;;;;14.34;57.24;99967.44;4344249;32;34551;-81
2022/05/02 01:51:17;;;;;;;4.18;3.05;;;;;;;14.26;57.75;99977.63;4362540;32;34811;-81
2022/05/02 01:53:45;;;;;;;9.80;3.33;;;;;;;14.48;57.00;99972.88;4361010;32;33713;-81
2022/05/02 01:56:13;;;;;;;4.18;3.58;;;;;;;14.62;56.36;99969.38;4363157;32;34030;-81
2022/05/02 01:58:42;;;;;;;4.20;3.20;;;;;;;14.56;56.95;99967.94;4358581;32;33695;-81
2022/05/02 02:01:11;;;;;;;4.70;3.35;;;;;;;14.56;57.01;99970.59;4349162;32;33397;-81
2022/05/02 02:03:39;;;;;;;5.82;3.62;;;;;;;14.68;56.79;99962.87;4365281;32;33864;-81
2022/05/02 02:06:07;;;;;;;4.75;3.17;;;;;;;14.59;57.27;99965.13;4363111;32;33829;-81
2022/05/02 02:08:36;;;;;;;3.58;3.15;;;;;;;14.50;57.91;99965.66;4363278;32;33927;-82
2022/05/02 02:11:06;;;;;;;5.40;3.50;;;;;;;14.53;57.87;99965.50;4368485;32;32744;-81
2022/05/02 02:13:35;;;;;;;4.15;3.22;;;;;;;14.51;57.54;99962.03;4366545;32;33709;-81
2022/05/02 02:16:09;;;;;;;3.97;3.45;;;;;;;14.30;57.93;99963.25;4361162;32;33503;-81
2022/05/02 02:18:38;;;;;;;5.15;3.50;;;;;;;14.29;58.32;99967.72;4346600;32;32615;-82
2022/05/02 02:21:09;;;;;;;5.82;3.50;;;;;;;14.47;57.81;99962.28;4354880;32;34588;-81
2022/05/02 02:23:38;;;;;;;6.05;3.92;;;;;;;14.99;55.98;99959.28;4362402;32;32516;-81
2022/05/02 02:26:06;;;;;;;5.32;3.30;;;;;;;15.01;55.96;99963.56;4357906;32;32999;-82
2022/05/02 02:28:35;;;;;;;3.92;3.08;;;;;;;14.45;57.82;99970.34;4341858;32;33759;-82
2022/05/02 02:31:03;;;;;;;4.70;3.33;;;;;;;14.34;58.40;99967.44;4345076;32;34020;-82
2022/05/02 02:33:31;;;;;;;4.28;3.60;;;;;;;14.49;57.68;99953.31;4348925;32;33244;-82
2022/05/02 02:35:59;;;;;;;5.95;3.62;;;;;;;14.90;56.18;99962.47;4349179;32;34123;-82
2022/05/02 02:38:27;;;;;;;7.55;3.62;;;;;;;14.77;56.82;99957.03;4342041;32;33084;-81
2022/05/02 02:40:55;;;;;;;6.18;3.97;;;;;;;14.63;57.78;99964.97;4348286;32;36078;-81
2022/05/02 02:43:23;;;;;;;9.52;3.42;;;;;;;14.52;58.10;99963.75;4338745;32;33268;-81
2022/05/02 02:45:52;;;;;;;4.07;3.10;;;;;;;14.71;57.46;99960.88;4341559;32;32909;-82
2022/05/02 02:48:21;;;;;;;4.32;3.12;;;;;;;14.72;57.60;99956.47;4346421;32;33857;-81
2022/05/02 02:50:49;;;;;;;4.20;2.97;;;;;;;14.75;57.49;99967.75;4341433;32;33473;-81
2022/05/02 02:53:17;;;;;;;6.65;3.90;;;;;;;14.80;57.71;99962.16;4349546;32;33158;-81
2022/05/02 02:55:44;;;;;;;4.97;3.83;;;;;;;15.20;56.42;99957.16;4355273;32;34117;-82
2022/05/02 02:58:13;;;;;;;8.98;3.60;;;;;;;15.09;56.89;99952.44;4347867;32;33532;-82
2022/05/02 03:00:41;;;;;;;6.55;3.22;;;;;;;14.86;57.91;99956.50;4358372;32;33883;-82
2022/05/02 03:03:11;;;;;;;4.70;3.25;;;;;;;14.74;58.23;99957.22;4329615;32;33801;-82
2022/05/02 03:08:26;;;;;;;5.18;3.55;;;;;;;14.78;58.23;99958.75;4343347;32;33797;-82
2022/05/02 03:10:55;;;;;;;5.25;3.40;;;;;;;14.93;57.46;99957.84;4348505;32;34413;-81
2022/05/02 03:13:23;;;;;;;6.80;3.47;;;;;;;14.94;57.44;99954.22;4331903;32;33411;-81
2022/05/02 03:15:51;;;;;;;4.85;3.33;;;;;;;15.02;56.99;99957.28;4330848;33;33424;-80
2022/05/02 03:18:20;;;;;;;5.72;3.87;;;;;;;14.92;57.34;99956.13;4339375;32;32283;-80
2022/05/02 03:20:48;;;;;;;4.97;3.80;;;;;;;14.99;57.24;99957.47;4350412;32;33604;-80
2022/05/02 03:23:16;;;;;;;4.75;3.40;;;;;;;14.89;58.00;99955.44;4338153;32;32926;-80
2022/05/02 03:25:45;;;;;;;6.28;4.97;;;;;;;14.86;58.03;99959.16;4354139;32;33462;-80
2022/05/02 03:28:13;;;;;;;4.32;3.42;;;;;;;14.95;57.69;99961.25;4342649;32;33579;-80
2022/05/02 03:30:41;;;;;;;5.70;3.30;;;;;;;14.97;57.70;99959.38;4330905;32;33292;-80
2022/05/02 03:33:09;;;;;;;4.37;3.97;;;;;;;14.93;57.82;99952.53;4354903;32;34102;-80
2022/05/02 03:35:37;;;;;;;5.43;3.22;;;;;;;14.95;58.09;99955.94;4329615;32;32919;-80
2022/05/02 03:38:05;;;;;;;4.68;3.60;;;;;;;14.84;58.12;99948.59;4355181;32;34180;-80
2022/05/02 03:40:34;;;;;;;8.43;4.00;;;;;;;14.88;58.00;99948.44;4343396;33;33922;-80
2022/05/02 03:43:02;;;;;;;4.62;3.85;;;;;;;14.97;58.19;99942.56;4354461;32;33184;-80
2022/05/02 03:45:31;;;;;;;4.12;3.30;;;;;;;15.05;57.51;99941.16;4354434;32;33269;-80
2022/05/02 03:48:02;;;;;;;8.55;5.32;;;;;;;15.02;57.78;99936.03;4355155;32;33571;-80
2022/05/02 03:50:29;;;;;;;8.05;3.70;;;;;;;14.80;58.89;99946.22;4349657;32;34794;-81
2022/05/02 03:52:57;;;;;;;5.70;3.97;;;;;;;15.14;57.84;99938.88;4353066;32;34477;-80
2022/05/02 03:55:25;;;;;;;5.43;3.97;;;;;;;15.10;57.59;99939.09;4352927;32;33478;-80
2022/05/02 03:57:53;;;;;;;5.87;3.45;;;;;;;15.05;57.79;99935.84;4343009;32;32142;-80
2022/05/02 04:00:22;;;;;;;5.40;3.78;;;;;;;14.87;58.64;99942.25;4355436;32;33735;-81
2022/05/02 04:02:53;;;;;;;9.55;3.95;;;;;;;15.05;57.85;99940.31;4342699;32;32919;-80
2022/05/02 04:05:27;;;;;;;7.47;4.37;;;;;;;15.05;57.77;99937.66;4335937;32;33724;-80
2022/05/02 04:07:58;;;;;;;5.93;4.15;;;;;;;15.03;57.95;99937.72;4338439;32;32225;-81
2022/05/02 04:10:27;;;;;;;8.00;3.62;;;;;;;15.06;58.09;99937.56;4339227;32;31239;-80
2022/05/02 04:12:55;;;;;;;6.47;3.97;;;;;;;15.13;57.98;99937.19;4341771;32;32823;-80
2022/05/02 04:15:23;;;;;;;5.32;4.00;;;;;;;14.91;58.90;99932.28;4339609;32;33090;-80
2022/05/02 04:17:52;;;;;;;7.90;4.37;;;;;;;15.01;58.67;99938.78;4334741;32;34574;-81
2022/05/02 04:20:20;;;;;;;5.55;3.40;;;;;;;15.02;57.85;99943.16;4337083;32;33883;-80
2022/05/02 04:22:50;;;;;;;8.43;3.70;;;;;;;14.93;57.92;99947.19;4352508;32;33291;-80
2022/05/02 04:25:18;;;;;;;6.93;3.87;;;;;;;15.14;56.99;99945.06;4331235;32;33067;-81
2022/05/02 04:27:48;;;;;;;5.25;3.67;;;;;;;15.25;56.74;99947.94;4337181;32;33898;-80
2022/05/02 04:30:20;;;;;;;9.13;4.35;;;;;;;15.41;56.53;99947.84;4347258;32;34759;-81
2022/05/02 04:32:54;;;;;;;5.30;3.67;;;;;;;15.53;56.29;99941.78;4339859;32;33020;-81
2022/05/02 04:35:24;;;;;;;4.85;3.72;;;;;;;15.59;56.73;99945.88;4325604;32;32012;-81
2022/05/02 04:37:52;;;;;;;4.60;3.62;;;;;;;15.61;56.92;99944.81;4339417;32;32906;-81
2022/05/02 04:40:20;;;;;;;9.18;4.72;;;;;;;15.84;56.62;99948.72;4329142;32;32549;-81
2022/05/02 04:42:49;;;;;;;8.15;4.03;;;;;;;15.55;56.79;99944.34;4337916;32;34652;-81
2022/05/02 04:45:17;;;;;;;9.55;4.40;;;;;;;15.96;55.25;99947.13;4338407;32;32226;-81
2022/05/02 04:47:45;;;;;;;5.45;4.25;;;;;;;15.86;56.14;99948.66;4357202;32;32809;-80
2022/05/02 04:50:14;;;;;;;6.70;4.50;;;;;;;15.67;57.15;99954.28;4335879;32;34009;-81
2022/05/02 04:52:48;;;;;;;8.27;4.20;;;;;;;15.90;56.40;99958.13;4342266;33;33340;-81
2022/05/02 04:55:18;;;;;;;5.43;4.37;;;;;;;15.91;56.56;99965.19;4339450;32;34040;-81
2022/05/02 04:57:53;;;;;;;7.68;4.68;;;;;;;16.03;54.88;99961.72;4339800;32;32078;-81
2022/05/02 05:00:25;;;;;;;9.15;3.95;;;;;;;16.33;51.38;99958.03;4338874;32;34385;-81
2022/05/02 05:02:53;;;;;;;6.00;4.82;;;;;;;16.01;50.63;99973.47;4328238;32;33714;-81
2022/05/02 05:05:28;;;;;;;6.60;3.30;;;;;;;15.96;50.98;99968.41;4328721;32;32646;-81
2022/05/02 05:07:57;;;;;;;7.22;3.72;;;;;;;16.19;49.93;99976.72;4340071;32;33872;-81
2022/05/02 05:10:27;;;;;;;3.50;3.17;;;;;;;16.49;48.50;99969.44;4337737;32;34703;-81
2022/05/02 05:13:23;;;;;;;6.72;3.92;;;;;;;16.65;47.72;99964.78;4338431;32;33070;-81
2022/05/02 05:18:48;;;;;;;4.47;3.50;;;;;;;16.49;47.42;99969.44;4356008;32;33801;-81
2022/05/02 05:21:49;;;;;;;5.15;3.40;;;;;;;16.80;46.44;99962.09;4356072;32;32585;-81
2022/05/02 05:24:30;;;;;;;6.43;3.62;;;;;;;16.48;46.94;99973.06;4333593;32;32991;-81
2022/05/02 05:27:10;;;;;;;6.47;3.78;;;;;;;16.76;46.33;99979.25;4325117;32;32987;-82
2022/05/02 05:32:28;;;;;;;8.23;4.25;;;;;;;16.81;45.47;99974.50;4353268;32;33566;-82
2022/05/02 05:35:05;;;;;;;10.38;3.58;;;;;;;16.49;45.72;99972.09;4356294;32;32604;-82
2022/05/02 05:37:49;;;;;;;7.85;4.15;;;;;;;16.79;44.69;99971.06;4354930;32;33770;-83
2022/05/02 05:40:38;;;;;;;4.75;4.05;;;;;;;16.97;44.81;99975.16;4348890;32;34477;-84
2022/05/02 05:43:19;;;;;;;4.60;3.60;;;;;;;17.11;44.39;99975.09;4336778;32;33452;-84
2022/05/02 05:45:56;;;;;;;5.05;3.97;;;;;;;17.06;44.75;99969.22;4325719;32;34209;-84
2022/05/02 05:48:49;;;;;;;8.52;3.37;;;;;;;17.18;44.79;99967.50;4338734;32;32739;-84
2022/05/02 05:51:37;;;;;;;4.90;4.22;;;;;;;16.97;46.28;99964.50;4351045;32;33782;-84
2022/05/02 05:54:29;;;;;;;7.68;4.70;;;;;;;17.38;44.45;99964.34;4351617;32;33964;-84
2022/05/02 05:57:05;;;;;;;6.68;3.83;;;;;;;17.31;45.69;99962.19;4352854;32;34266;-84
2022/05/02 05:59:58;;;;;;;6.22;3.83;;;;;;;17.36;45.28;99960.91;4355217;32;32657;-84
2022/05/02 06:03:08;;;;;;;4.82;4.35;;;;;;;17.45;45.79;99970.09;4354614;32;34368;-84
2022/05/02 06:05:47;;;;;;;6.82;3.62;;;;;;;17.57;44.53;99966.59;4357550;32;34578;-84
2022/05/02 06:08:19;;;;;;;5.20;3.95;;;;;;;17.59;44.74;99966.47;4358656;32;33253;-84
2022/05/02 06:10:50;;;;;;;7.60;3.33;;;;;;;17.78;45.62;99961.56;4353055;32;33454;-84
2022/05/02 06:13:19;;;;;;;7.50;3.67;;;;;;;17.73;46.72;99965.50;4354501;32;33017;-84
2022/05/02 06:18:58;;;;;;;8.10;4.65;;;;;;;17.88;47.07;99962.59;4353477;32;33110;-84
2022/05/02 06:21:28;;;;;;;4.25;3.85;;;;;;;17.85;46.54;99961.97;4353544;32;33080;-84
2022/05/02 06:23:57;;;;;;;8.32;4.22;;;;;;;18.29;44.43;99949.91;4360900;32;33789;-84
2022/05/02 06:26:26;;;;;;;9.20;4.43;;;;;;;18.49;42.74;99957.31;4355792;32;34054;-84
2022/05/02 06:28:56;;;;;;;4.35;3.95;;;;;;;18.34;41.58;99970.00;4344235;32;32410;-84
2022/05/02 06:31:26;;;;;;;4.90;3.70;;;;;;;17.78;47.53;99968.72;4344628;32;33256;-84
2022/05/02 06:33:57;;;;;;;5.62;4.25;;;;;;;18.15;45.92;99958.94;4352620;32;32368;-84
2022/05/02 06:36:42;;;;;;;7.45;4.97;;;;;;;17.99;45.39;99960.97;4353375;32;32690;-84
2022/05/02 06:39:18;;;;;;;4.62;3.78;;;;;;;17.96;46.02;99959.41;4353887;32;32867;-84
2022/05/02 06:41:58;;;;;;;7.35;4.35;;;;;;;18.32;44.54;99963.03;4364938;32;32518;-84
2022/05/02 06:44:48;;;;;;;8.32;4.32;;;;;;;17.98;47.05;99962.81;4366831;32;33109;-84
2022/05/02 06:47:59;;;;;;;12.07;4.62;;;;;;;17.90;47.85;99965.19;4366092;32;32742;-84
2022/05/02 06:50:32;;;;;;;8.15;4.47;;;;;;;17.94;46.55;99976.50;4341226;32;32684;-84
2022/05/02 06:53:39;;;;;;;6.40;4.90;;;;;;;17.87;48.58;99981.44;4342129;32;32543;-85
2022/05/02 06:56:21;;;;;;;5.03;4.28;;;;;;;17.76;49.05;99989.34;4364691;32;32751;-84
2022/05/02 06:59:11;;;;;;;6.97;3.90;;;;;;;17.87;50.52;99987.63;4355308;32;33620;-85
2022/05/02 07:01:53;;;;;;;8.30;4.32;;;;;;;17.63;50.18;100000.84;4343713;32;33611;-84
2022/05/02 07:04:50;;;;;;;5.55;4.93;;;;;;;17.09;51.78;99992.13;4352641;32;32400;-83
2022/05/02 07:07:40;;;;;;;5.40;4.50;;;;;;;17.34;50.57;99996.69;4350512;32;33562;-84
2022/05/02 07:10:20;;;;;;;8.45;5.25;;;;;;;17.78;48.66;100003.44;4348284;32;34154;-85
2022/05/02 07:13:13;;;;;;;12.37;5.05;;;;;;;17.75;48.09;99993.81;4363992;32;33661;-84
2022/05/02 07:15:49;;;;;;;11.68;6.12;;;;;;;17.75;47.82;99999.16;4362829;32;32634;-85
2022/05/02 07:18:43;;;;;;;12.37;7.57;;;;;;;17.46;49.72;99992.31;4345976;32;34525;-86
2022/05/02 07:21:38;;;;;;;13.13;6.12;;;;;;;17.51;48.68;99991.00;4345562;32;32766;-84
2022/05/02 07:24:41;;;;;;;7.78;5.85;;;;;;;17.47;50.66;99994.88;4369785;32;33764;-85
2022/05/02 07:27:20;;;;;;;9.48;6.68;;;;;;;17.50;50.40;99993.81;4350508;32;34228;-84
2022/05/02 07:29:56;;;;;;;11.77;6.50;;;;;;;18.01;49.13;99981.31;4361470;32;34053;-84
2022/05/02 07:32:27;;;;;;;10.77;7.20;;;;;;;17.41;50.04;99996.13;4362210;32;33758;-84
2022/05/02 07:34:59;;;;;;;8.45;6.82;;;;;;;17.98;47.73;99989.53;4351513;32;32924;-84
2022/05/02 07:37:30;;;;;;;15.88;7.35;;;;;;;17.71;47.42;99991.44;4337437;32;32705;-84
2022/05/02 07:40:05;;;;;;;9.02;7.35;;;;;;;17.65;46.66;99987.38;4352433;32;33153;-84
2022/05/02 07:42:37;;;;;;;11.93;6.35;;;;;;;18.22;46.37;99986.06;4364994;32;32305;-84
2022/05/02 07:45:10;;;;;;;7.90;6.22;;;;;;;17.71;46.79;99986.09;4355718;32;32677;-84
2022/05/02 07:47:43;;;;;;;8.10;5.57;;;;;;;18.24;46.51;99978.78;4362215;32;33785;-84
2022/05/02 07:50:12;;;;;;;5.07;4.03;;;;;;;18.23;45.69;99977.06;4367249;32;32508;-84
2022/05/02 07:52:41;;;;;;;10.00;4.30;;;;;;;18.58;45.22;99971.81;4340403;32;32313;-84
2022/05/02 07:55:13;;;;;;;8.45;4.65;;;;;;;18.56;43.96;99974.62;4330678;32;34286;-84
2022/05/02 07:57:42;;;;;;;5.45;3.80;;;;;;;18.62;43.99;99978.66;4357139;32;32842;-83
2022/05/02 08:00:12;;;;;;;6.65;4.35;;;;;;;19.01;42.17;99974.84;4355682;32;32944;-83
2022/05/02 08:02:42;;;;;;;8.93;3.80;;;;;;;18.79;43.96;99980.09;4354564;32;33996;-85
2022/05/02 08:07:53;;;;;;;6.72;2.87;;;;;;;18.77;43.87;99980.22;4341567;32;33380;-82
2022/05/02 08:10:30;;;;;;;5.55;3.72;;;;;;;19.15;43.57;99971.97;4347649;32;33247;-82
2022/05/02 08:13:38;;;;;;;8.82;3.35;;;;;;;19.27;45.72;99980.00;4362452;32;33996;-82
2022/05/02 08:16:21;;;;;;;7.72;2.62;;;;;;;19.35;44.13;99974.91;4368025;32;33174;-82
2022/05/02 08:18:58;;;;;;;4.28;3.00;;;;;;;19.68;44.66;99977.69;4347530;32;33409;-82
2022/05/02 08:27:15;;;;;;;5.30;2.95;;;;;;;19.43;45.27;99976.03;4358439;32;31514;-86
2022/05/02 08:28:12;;;;;;;4.85;2.90;;;;;;;19.73;44.80;99963.06;4345215;32;34529;-86
2022/05/02 08:30:54;;;;;;;6.57;3.05;;;;;;;20.21;43.75;99967.16;4348413;32;32999;-86
2022/05/02 08:33:27;;;;;;;7.05;2.90;;;;;;;20.29;41.28;99958.50;4345102;32;33956;-86
2022/05/02 08:36:03;;;;;;;6.72;2.87;;;;;;;20.35;42.68;99957.16;4338364;32;33065;-86
2022/05/02 08:38:44;;;;;;;3.80;2.80;;;;;;;20.54;41.16;99954.69;4363902;32;31722;-83
2022/05/02 08:41:32;;;;;;;4.12;2.80;;;;;;;21.06;40.29;99944.97;4357491;32;32108;-83
2022/05/02 08:44:14;;;;;;;4.47;2.70;;;;;;;21.01;40.29;99949.03;4359222;32;33931;-83
2022/05/02 08:47:20;;;;;;;2.87;2.50;;;;;;;21.06;40.60;99958.38;4358278;32;34115;-83
2022/05/02 08:50:22;;;;;;;3.62;2.30;;;;;;;20.57;44.42;99954.44;4352812;32;33175;-83
2022/05/02 08:53:05;;;;;;;3.58;2.28;;;;;;;20.97;42.00;99953.78;4353989;32;33252;-83
2022/05/02 08:55:39;;;;;;;2.70;2.37;;;;;;;20.78;41.31;99949.13;4355702;32;32749;-83
2022/05/02 08:58:15;;;;;;;2.92;2.03;;;;;;;20.64;42.77;99946.72;4352605;32;34521;-85
2022/05/02 09:01:00;;;;;;;4.00;2.75;;;;;;;20.73;41.34;99950.50;4365082;32;33602;-86
2022/05/02 09:04:11;;;;;;;6.50;3.78;;;;;;;20.95;41.62;99939.66;4358751;32;32943;-86
2022/05/02 09:07:18;;;;;;;4.55;3.35;;;;;;;20.58;42.82;99953.47;4353877;32;33131;-86
2022/05/02 09:10:01;;;;;;;4.57;2.60;;;;;;;20.68;41.63;99943.66;4352997;32;33755;-86
2022/05/02 09:13:04;;;;;;;8.00;3.53;;;;;;;20.53;41.80;99947.63;4352811;32;32459;-86
2022/05/02 09:15:58;;;;;;;5.53;3.50;;;;;;;20.71;41.63;99946.09;4336218;32;32785;-86
2022/05/02 09:18:42;;;;;;;4.93;3.30;;;;;;;20.71;42.44;99946.09;4352891;32;33274;-86
2022/05/02 09:21:16;;;;;;;4.80;2.70;;;;;;;20.74;40.72;99941.44;4361739;32;33527;-86
2022/05/02 09:24:03;;;;;;;4.22;2.85;;;;;;;20.32;42.02;99944.00;4365167;32;34165;-81
2022/05/02 09:26:57;;;;;;;2.50;2.12;;;;;;;20.48;41.08;99947.16;4367402;32;34160;-82
2022/05/02 09:29:49;;;;;;;6.90;2.85;;;;;;;20.77;41.88;99938.53;4360275;32;33879;-84
2022/05/02 09:32:42;;;;;;;7.72;3.00;;;;;;;20.62;41.32;99933.47;4363213;32;34004;-83
2022/05/02 09:35:15;;;;;;;9.65;2.75;;;;;;;20.42;41.50;99937.75;4359418;32;33449;-83
2022/05/02 09:37:57;;;;;;;3.08;2.60;;;;;;;20.16;42.24;99947.94;4358428;32;32474;-83
2022/05/02 09:40:35;;;;;;;3.05;2.28;;;;;;;20.45;41.04;99940.19;4338037;32;33363;-83
2022/05/02 09:51:51;;;;;;;1.12;1.02;;;;;;;20.24;41.58;99943.78;4368697;32;34067;-86
2022/05/02 09:57:35;;;;;;;1.85;1.27;;;;;;;20.43;40.65;99934.09;4357202;32;34646;-86
2022/05/02 10:03:19;;;;;;;2.95;1.35;;;;;;;20.76;40.51;99923.41;4347827;32;33224;-86
2022/05/02 10:06:03;;;;;;;2.87;1.67;;;;;;;21.02;39.88;99916.66;4349654;32;33040;-85
2022/05/02 10:08:46;;;;;;;4.12;1.48;;;;;;;21.39;38.77;99917.06;4342720;32;33500;-85
2022/05/02 10:11:23;;;;;;;2.50;2.30;;;;;;;21.19;39.28;99913.41;4345595;32;33834;-85
2022/05/02 10:14:23;;;;;;;2.95;1.87;;;;;;;21.41;40.99;99911.56;4332330;32;34104;-85
2022/05/02 10:17:07;;;;;;;3.35;1.67;;;;;;;21.95;39.13;99899.63;4352096;32;34524;-85
2022/05/02 10:19:41;;;;;;;5.28;1.90;;;;;;;21.81;38.72;99894.63;4360777;32;34488;-85
2022/05/02 10:22:24;;;;;;;4.30;2.22;;;;;;;21.57;37.76;99893.13;4359711;32;32351;-85
2022/05/02 10:25:07;;;;;;;2.62;2.10;;;;;;;22.01;36.93;99882.09;4346405;32;32374;-85
2022/05/02 10:28:01;;;;;;;3.00;1.60;;;;;;;21.65;37.89;99879.87;4349930;32;34708;-85
2022/05/02 10:30:43;;;;;;;4.18;1.70;;;;;;;22.09;36.68;99880.41;4343173;32;32788;-86
2022/05/02 10:33:21;;;;;;;2.08;1.70;;;;;;;21.87;37.34;99877.94;4364280;32;32149;-84
2022/05/02 10:35:51;;;;;;;6.37;1.77;;;;;;;22.06;36.93;99872.59;4357018;32;33557;-83
2022/05/02 10:38:27;;;;;;;6.12;2.42;;;;;;;21.87;39.48;99877.94;4349165;32;33912;-85
2022/05/02 10:41:27;;;;;;;4.55;2.30;;;;;;;22.25;36.56;99877.19;4357811;32;34206;-85
2022/05/02 10:44:04;;;;;;;3.33;1.30;;;;;;;22.22;36.61;99877.50;4356019;32;35408;-84
2022/05/02 10:49:40;;;;;;;2.67;1.67;;;;;;;22.45;38.73;99872.69;4357822;32;33128;-87
2022/05/02 10:52:32;;;;;;;2.37;1.25;;;;;;;22.33;36.68;99873.81;4360701;32;32873;-86
2022/05/02 10:55:05;;;;;;;2.85;1.85;;;;;;;22.86;34.72;99868.00;4354284;32;33000;-85
2022/05/02 11:00:17;;;;;;;5.45;1.77;;;;;;;22.51;37.39;99872.13;4357425;32;33880;-85
2022/05/02 11:03:27;;;;;;;3.35;1.50;;;;;;;22.06;37.28;99872.59;4364795;32;34950;-86
2022/05/02 11:06:13;;;;;;;6.72;1.45;;;;;;;22.33;35.15;99874.66;4355699;32;32615;-85
2022/05/02 11:11:36;;;;;;;4.68;1.55;;;;;;;21.65;37.36;99874.50;4350554;32;33688;-86
2022/05/02 11:14:41;;;;;;;3.30;1.80;;;;;;;22.32;36.81;99869.44;4365620;32;31289;-85
2022/05/02 11:17:14;;;;;;;2.70;1.75;;;;;;;22.51;35.52;99874.81;4349062;32;32705;-86
2022/05/02 11:22:41;;;;;;;3.30;1.40;;;;;;;22.89;34.65;99859.66;4359650;32;32701;-86
2022/05/02 11:25:21;;;;;;;3.28;1.23;;;;;;;22.76;33.72;99862.63;4354214;32;34476;-86
2022/05/02 11:28:01;;;;;;;3.35;1.55;;;;;;;22.15;35.04;99869.13;4337717;32;34018;-85
2022/05/02 11:30:38;;;;;;;4.62;1.42;;;;;;;22.33;34.35;99866.59;4349032;32;33302;-84
2022/05/02 11:33:25;;;;;;;6.62;1.60;;;;;;;22.60;33.40;99863.22;4356404;32;33931;-84
2022/05/02 11:35:55;;;;;;;1.92;1.50;;;;;;;22.97;34.16;99859.78;4338667;32;33162;-84
2022/05/02 11:39:12;;;;;;;1.77;1.62;;;;;;;22.47;34.65;99859.97;4352987;32;32472;-94
2022/05/02 11:42:13;;;;;;;1.90;1.62;;;;;;;22.63;34.15;99857.53;4344415;33;32695;-94
2022/05/02 11:45:14;;;;;;;1.65;1.55;;;;;;;22.54;33.55;99855.69;4353268;32;34448;-94
2022/05/02 11:48:09;;;;;;;3.95;1.83;;;;;;;22.08;34.02;99853.66;4332208;32;32344;-84
2022/05/02 11:50:44;;;;;;;2.30;1.45;;;;;;;22.33;32.74;99849.63;4346901;32;33592;-84
2022/05/02 11:53:14;;;;;;;3.55;1.83;;;;;;;22.01;34.37;99847.97;4345858;32;33131;-84
2022/05/02 11:55:44;;;;;;;1.60;1.17;;;;;;;22.29;34.59;99840.97;4361208;32;34771;-84
2022/05/02 11:58:48;;;;;;;3.47;1.20;;;;;;;22.51;33.66;99839.00;4361507;32;33943;-84
2022/05/02 12:01:26;;;;;;;1.50;1.30;;;;;;;22.56;32.93;99845.66;4357458;32;32983;-84
2022/05/02 12:04:01;;;;;;;1.95;0.93;;;;;;;22.90;31.52;99834.44;4344193;32;33813;-84
2022/05/02 12:06:44;;;;;;;2.87;1.62;;;;;;;23.17;32.31;99825.59;4335105;33;33329;-84
2022/05/02 12:09:22;;;;;;;2.25;1.33;;;;;;;23.04;33.32;99830.44;4348587;32;33137;-85
2022/05/02 12:11:58;;;;;;;2.62;1.23;;;;;;;22.84;35.12;99835.00;4339554;32;32523;-85
2022/05/02 12:14:31;;;;;;;4.57;1.83;;;;;;;23.07;33.03;99828.28;4360348;32;33886;-85
2022/05/02 12:17:09;;;;;;;3.42;1.27;;;;;;;22.80;33.14;99833.59;4347156;32;33049;-85
2022/05/02 12:19:41;;;;;;;2.22;1.37;;;;;;;23.23;32.30;99820.44;4340445;32;33676;-85
2022/05/02 12:22:19;;;;;;;1.92;1.70;;;;;;;23.70;31.04;99812.31;4347372;32;33283;-85
2022/05/02 12:24:54;;;;;;;4.00;2.15;;;;;;;23.52;31.57;99811.37;4353320;32;34079;-85
2022/05/02 12:27:25;;;;;;;4.07;1.67;;;;;;;24.23;30.18;99789.94;4340207;32;32618;-84
2022/05/02 12:29:58;;;;;;;3.85;1.83;;;;;;;24.50;29.21;99796.28;4356566;32;33433;-86
2022/05/02 12:32:33;;;;;;;4.60;1.95;;;;;;;23.54;31.46;99800.44;4356549;32;32866;-84
2022/05/02 12:35:07;;;;;;;6.50;1.83;;;;;;;23.54;33.19;99789.66;4349859;32;33529;-84
2022/05/02 12:37:40;;;;;;;1.73;1.58;;;;;;;23.58;33.87;99782.97;4348606;32;32978;-85
2022/05/02 12:40:10;;;;;;;2.47;1.80;;;;;;;24.11;31.31;99777.66;4358178;32;34372;-84
2022/05/02 12:42:45;;;;;;;3.72;2.10;;;;;;;24.45;30.38;99785.94;4335690;32;33687;-85
2022/05/02 12:45:36;;;;;;;1.40;1.30;;;;;;;24.63;30.39;99782.34;4354174;32;33458;-85
2022/05/02 12:48:08;;;;;;;2.35;1.58;;;;;;;24.66;30.14;99774.78;4341909;32;33572;-85
2022/05/02 12:50:47;;;;;;;;;;;;;;;24.33;33.15;99778.22;4331701;32;32451;-85
2022/05/02 12:54:09;;;;;;;2.22;2.03;;;;;;;24.93;30.57;99768.38;4341091;32;32488;-85
2022/05/02 12:56:09;;;;;;;3.62;1.60;;;;;;;24.59;29.86;99770.16;4353044;32;33507;-85
2022/05/02 13:01:43;;;;;;;2.03;1.60;;;;;;;25.39;30.32;99752.75;4353112;32;33169;-83
2022/05/02 13:06:58;;;;;;;2.05;1.85;;;;;;;25.05;29.17;99760.84;4329852;32;32705;-84
2022/05/02 13:09:35;;;;;;;2.12;1.92;;;;;;;24.82;30.36;99748.87;4346315;32;32466;-84